createdAt,value
2017-08-06T18:21:24.960Z,22.84
2017-08-06T18:27:46.505Z,22.49
2017-08-06T18:28:48.060Z,22.52
2017-08-06T18:29:48.054Z,22.44
2017-08-06T18:30:48.052Z,22.45
2017-08-06T18:31:48.054Z,22.31
2017-08-06T18:32:48.048Z,22.36
2017-08-06T18:33:48.048Z,22.31
2017-08-06T18:34:48.342Z,22.29
2017-08-06T18:35:48.041Z,22.29
2017-08-06T18:36:48.036Z,22.23
2017-08-06T18:37:48.041Z,22.27
2017-08-06T18:38:48.029Z,22.24
2017-08-06T18:39:48.021Z,22.29
2017-08-06T18:40:48.019Z,22.21
2017-08-06T18:41:48.014Z,22.64
2017-08-06T18:42:48.013Z,23.07
2017-08-06T18:43:48.009Z,23.39
2017-08-06T18:44:48.005Z,23.77
2017-08-06T18:45:48.003Z,24.00
2017-08-06T18:46:47.999Z,24.12
2017-08-06T18:47:47.998Z,24.23
2017-08-06T18:48:47.997Z,24.37
2017-08-06T18:49:47.992Z,24.53
2017-08-06T18:50:47.991Z,24.61
2017-08-06T18:51:47.986Z,24.61
2017-08-06T18:52:47.985Z,24.64
2017-08-06T18:53:47.982Z,24.71
2017-08-06T18:54:47.979Z,24.82
2017-08-06T18:55:47.972Z,24.83
2017-08-06T18:56:47.968Z,24.86
2017-08-06T18:57:47.966Z,24.92
2017-08-06T18:58:47.962Z,24.87
2017-08-06T18:59:47.956Z,24.94
2017-08-06T19:00:47.957Z,24.15
2017-08-06T19:01:47.950Z,23.56
2017-08-06T19:02:47.947Z,23.06
2017-08-06T19:03:47.962Z,22.56
2017-08-06T19:04:47.948Z,22.36
2017-08-06T19:05:47.946Z,20.15
2017-08-06T19:06:47.944Z,19.01
2017-08-06T19:07:47.941Z,18.57
2017-08-06T19:08:47.937Z,18.31
2017-08-06T19:09:47.935Z,18.31
2017-08-06T19:10:47.929Z,17.89
2017-08-06T19:11:47.923Z,17.68
2017-08-06T19:12:47.923Z,17.54
2017-08-06T19:13:47.915Z,17.42
2017-08-06T19:14:47.913Z,17.32
2017-08-06T19:15:47.911Z,17.18
2017-08-06T19:16:47.904Z,17.12
2017-08-06T19:17:47.901Z,17.14
2017-08-06T19:18:47.894Z,17.07
2017-08-06T19:19:47.895Z,17.20
2017-08-06T19:20:47.895Z,17.02
2017-08-06T19:21:47.886Z,17.20
2017-08-06T19:22:47.888Z,16.99
2017-08-06T19:23:47.879Z,16.81
2017-08-06T19:24:47.875Z,16.73
2017-08-06T19:25:47.870Z,16.63
2017-08-06T19:26:47.870Z,16.78
2017-08-06T19:27:47.857Z,16.54
2017-08-06T19:28:47.850Z,16.55
2017-08-06T19:29:47.849Z,16.51
2017-08-06T19:30:47.842Z,16.57
2017-08-06T19:31:47.850Z,16.63
2017-08-06T19:32:47.837Z,16.60
2017-08-06T19:33:47.830Z,16.85
2017-08-06T19:34:47.825Z,16.75
2017-08-06T19:35:47.817Z,16.59
2017-08-06T19:36:47.810Z,16.37
2017-08-06T19:37:47.809Z,16.36
2017-08-06T19:38:47.799Z,16.23
2017-08-06T19:39:47.794Z,16.27
2017-08-06T19:40:47.792Z,16.29
2017-08-06T19:41:47.784Z,16.14
2017-08-06T19:42:47.777Z,16.17
2017-08-06T19:43:47.775Z,16.33
2017-08-06T19:44:47.771Z,16.14
2017-08-06T19:45:47.764Z,16.25
2017-08-06T19:46:47.762Z,16.34
2017-08-06T19:47:47.756Z,16.33
2017-08-06T19:48:47.748Z,16.27
2017-08-06T19:49:47.743Z,16.26
2017-08-06T19:50:47.737Z,16.26
2017-08-06T19:51:47.726Z,16.03
2017-08-06T19:52:47.724Z,15.99
2017-08-06T19:53:47.715Z,16.07
2017-08-06T19:54:47.714Z,16.13
2017-08-06T19:55:47.707Z,16.18
2017-08-06T19:56:47.701Z,16.13
2017-08-06T19:57:47.695Z,15.98
2017-08-06T19:58:47.687Z,16.03
2017-08-06T19:59:47.693Z,15.99
2017-08-06T20:00:47.679Z,15.76
2017-08-06T20:01:47.676Z,15.85
2017-08-06T20:02:47.666Z,15.89
2017-08-06T20:03:47.661Z,15.85
2017-08-06T20:04:47.657Z,15.85
2017-08-06T20:05:47.651Z,15.84
2017-08-06T20:06:47.645Z,15.67
2017-08-06T20:07:47.637Z,15.77
2017-08-06T20:08:47.628Z,15.67
2017-08-06T20:09:47.625Z,15.74
2017-08-06T20:10:47.616Z,15.74
2017-08-06T20:11:47.613Z,15.76
2017-08-06T20:12:47.605Z,15.66
2017-08-06T20:13:47.601Z,15.64
2017-08-06T20:14:47.596Z,15.48
2017-08-06T20:15:47.592Z,15.58
2017-08-06T20:16:47.588Z,15.55
2017-08-06T20:17:47.579Z,15.53
2017-08-06T20:18:47.577Z,15.51
2017-08-06T20:19:47.569Z,15.49
2017-08-06T20:20:47.561Z,15.49
2017-08-06T20:21:47.558Z,15.55
2017-08-06T20:22:47.549Z,15.60
2017-08-06T20:23:47.541Z,15.52
2017-08-06T20:24:47.538Z,15.55
2017-08-06T20:25:47.530Z,15.60
2017-08-06T20:26:47.523Z,15.46
2017-08-06T20:27:47.515Z,15.49
2017-08-06T20:28:47.512Z,15.37
2017-08-06T20:29:47.504Z,15.30
2017-08-06T20:30:47.499Z,15.35
2017-08-06T20:31:47.496Z,15.41
2017-08-06T20:32:47.490Z,15.33
2017-08-06T20:33:47.488Z,15.33
2017-08-06T20:34:47.476Z,15.38
2017-08-06T20:35:47.468Z,15.31
2017-08-06T20:36:47.461Z,15.38
2017-08-06T20:37:47.454Z,15.31
2017-08-06T20:38:47.449Z,15.22
2017-08-06T20:39:47.450Z,15.31
2017-08-06T20:40:47.439Z,15.35
2017-08-06T20:41:47.435Z,15.20
2017-08-06T20:42:47.425Z,15.18
2017-08-06T20:43:47.421Z,15.28
2017-08-06T20:44:47.416Z,15.27
2017-08-06T20:45:47.409Z,15.15
2017-08-06T20:46:47.401Z,15.25
2017-08-06T20:47:47.403Z,15.33
2017-08-06T20:48:47.385Z,15.18
2017-08-06T20:49:47.378Z,15.23
2017-08-06T20:50:47.373Z,15.35
2017-08-06T20:51:47.367Z,15.13
2017-08-06T20:52:47.360Z,15.05
2017-08-06T20:53:47.354Z,15.03
2017-08-06T20:54:47.345Z,15.01
2017-08-06T20:55:47.343Z,15.01
2017-08-06T20:56:47.356Z,14.87
2017-08-06T20:57:47.329Z,14.59
2017-08-06T20:58:47.327Z,14.49
2017-08-06T20:59:47.316Z,14.66
2017-08-06T21:00:47.315Z,14.63
2017-08-06T21:01:47.315Z,14.45
2017-08-06T21:02:47.298Z,14.71
2017-08-06T21:03:47.292Z,14.53
2017-08-06T21:04:47.282Z,14.60
2017-08-06T21:05:47.292Z,14.66
2017-08-06T21:06:47.266Z,14.54
2017-08-06T21:07:47.260Z,14.72
2017-08-06T21:08:47.257Z,14.71
2017-08-06T21:09:47.249Z,14.61
2017-08-06T21:10:47.241Z,14.61
2017-08-06T21:11:47.266Z,14.54
2017-08-06T21:12:47.232Z,14.60
2017-08-06T21:13:47.226Z,14.60
2017-08-06T21:14:47.216Z,14.60
2017-08-06T21:15:47.215Z,14.52
2017-08-06T21:16:47.203Z,14.44
2017-08-06T21:17:47.201Z,14.24
2017-08-06T21:18:47.191Z,14.35
2017-08-06T21:19:47.180Z,14.39
2017-08-06T21:20:47.175Z,14.44
2017-08-06T21:21:47.165Z,14.54
2017-08-06T21:22:47.161Z,14.39
2017-08-06T21:23:47.163Z,14.26
2017-08-06T21:24:47.146Z,14.24
2017-08-06T21:25:47.140Z,14.12
2017-08-06T21:26:47.133Z,14.26
2017-08-06T21:27:47.130Z,14.17
2017-08-06T21:28:47.124Z,14.29
2017-08-06T21:29:47.116Z,14.27
2017-08-06T21:30:47.109Z,14.27
2017-08-06T21:31:47.101Z,14.17
2017-08-06T21:32:47.109Z,14.24
2017-08-06T21:33:47.088Z,14.16
2017-08-06T21:34:47.084Z,14.26
2017-08-06T21:35:47.071Z,14.26
2017-08-06T21:36:47.063Z,14.19
2017-08-06T21:37:47.058Z,14.19
2017-08-06T21:38:47.049Z,14.27
2017-08-06T21:39:47.047Z,14.27
2017-08-06T21:40:47.042Z,14.36
2017-08-06T21:41:47.033Z,14.04
2017-08-06T21:42:47.027Z,14.13
2017-08-06T21:43:47.016Z,14.12
2017-08-06T21:44:47.007Z,14.02
2017-08-06T21:45:47.003Z,13.93
2017-08-06T21:46:46.992Z,13.94
2017-08-06T21:47:46.992Z,14.04
2017-08-06T21:48:46.978Z,13.94
2017-08-06T21:49:46.974Z,14.11
2017-08-06T21:50:46.964Z,14.12
2017-08-06T21:51:46.962Z,14.11
2017-08-06T21:52:46.957Z,14.17
2017-08-06T21:53:46.947Z,14.11
2017-08-06T21:54:46.944Z,14.13
2017-08-06T21:55:46.935Z,14.19
2017-08-06T21:56:46.926Z,13.93
2017-08-06T21:57:46.921Z,14.05
2017-08-06T21:58:46.912Z,13.91
2017-08-06T21:59:46.900Z,13.96
2017-08-06T22:00:46.895Z,13.84
2017-08-06T22:01:46.886Z,13.86
2017-08-06T22:02:46.881Z,13.84
2017-08-06T22:03:46.871Z,13.84
2017-08-06T22:04:46.867Z,13.81
2017-08-06T22:05:46.857Z,13.90
2017-08-06T22:06:46.852Z,13.98
2017-08-06T22:07:46.849Z,13.72
2017-08-06T22:08:46.841Z,13.86
2017-08-06T22:09:46.835Z,13.86
2017-08-06T22:10:46.825Z,13.98
2017-08-06T22:11:46.819Z,13.90
2017-08-06T22:12:46.813Z,13.96
2017-08-06T22:13:46.804Z,13.83
2017-08-06T22:14:46.798Z,13.93
2017-08-06T22:15:46.787Z,13.63
2017-08-06T22:16:46.777Z,13.81
2017-08-06T22:17:46.773Z,13.83
2017-08-06T22:18:46.764Z,13.94
2017-08-06T22:19:46.758Z,13.71
2017-08-06T22:20:46.749Z,13.54
2017-08-06T22:21:46.749Z,13.69
2017-08-06T22:22:46.735Z,13.59
2017-08-06T22:23:46.733Z,13.68
2017-08-06T22:24:46.727Z,13.59
2017-08-06T22:25:46.718Z,13.62
2017-08-06T22:26:46.712Z,13.48
2017-08-06T22:27:46.705Z,13.51
2017-08-06T22:28:46.695Z,13.54
2017-08-06T22:29:46.689Z,13.53
2017-08-06T22:30:46.682Z,13.61
2017-08-06T22:31:46.669Z,13.59
2017-08-06T22:32:46.664Z,13.57
2017-08-06T22:33:46.655Z,13.44
2017-08-06T22:34:46.647Z,13.31
2017-08-06T22:35:46.639Z,13.35
2017-08-06T22:36:46.637Z,13.47
2017-08-06T22:37:46.624Z,13.38
2017-08-06T22:38:46.619Z,13.17
2017-08-06T22:39:46.615Z,13.29
2017-08-06T22:40:46.606Z,13.27
2017-08-06T22:41:46.601Z,13.21
2017-08-06T22:42:46.591Z,13.19
2017-08-06T22:43:46.585Z,13.16
2017-08-06T22:44:46.576Z,13.09
2017-08-06T22:45:46.570Z,13.17
2017-08-06T22:46:46.560Z,13.36
2017-08-06T22:47:46.549Z,13.38
2017-08-06T22:48:46.544Z,13.59
2017-08-06T22:49:46.534Z,13.66
2017-08-06T22:50:46.528Z,13.87
2017-08-06T22:51:46.522Z,13.84
2017-08-06T22:52:46.513Z,13.90
2017-08-06T22:53:46.504Z,14.01
2017-08-06T22:54:46.498Z,13.93
2017-08-06T22:55:46.497Z,14.20
2017-08-06T22:56:46.486Z,14.20
2017-08-06T22:57:46.480Z,14.09
2017-08-06T22:58:46.471Z,14.17
2017-08-06T22:59:46.464Z,14.08
2017-08-06T23:00:46.459Z,14.01
2017-08-06T23:01:46.449Z,14.01
2017-08-06T23:02:46.443Z,14.13
2017-08-06T23:03:46.432Z,13.94
2017-08-06T23:04:46.422Z,13.96
2017-08-06T23:05:46.418Z,13.96
2017-08-06T23:06:46.407Z,13.68
2017-08-06T23:07:46.401Z,13.86
2017-08-06T23:08:46.394Z,13.69
2017-08-06T23:09:46.388Z,13.48
2017-08-06T23:10:46.378Z,13.27
2017-08-06T23:11:46.375Z,13.27
2017-08-06T23:12:46.369Z,13.09
2017-08-06T23:13:46.363Z,13.06
2017-08-06T23:14:46.354Z,13.10
2017-08-06T23:15:46.347Z,13.13
2017-08-06T23:16:46.336Z,13.16
2017-08-06T23:17:46.331Z,13.09
2017-08-06T23:18:46.320Z,13.06
2017-08-06T23:19:46.311Z,13.13
2017-08-06T23:20:46.304Z,13.04
2017-08-06T23:21:46.294Z,13.04
2017-08-06T23:22:46.288Z,13.14
2017-08-06T23:23:46.279Z,13.03
2017-08-06T23:24:46.273Z,12.92
2017-08-06T23:25:46.263Z,12.92
2017-08-06T23:26:46.258Z,12.74
2017-08-06T23:27:46.254Z,12.74
2017-08-06T23:28:46.243Z,12.79
2017-08-06T23:29:46.237Z,12.87
2017-08-06T23:30:46.229Z,12.77
2017-08-06T23:31:46.221Z,12.91
2017-08-06T23:32:46.214Z,12.99
2017-08-06T23:33:46.203Z,13.06
2017-08-06T23:34:46.197Z,13.16
2017-08-06T23:35:46.185Z,12.94
2017-08-06T23:36:46.176Z,12.91
2017-08-06T23:37:46.170Z,12.92
2017-08-06T23:38:46.159Z,13.09
2017-08-06T23:39:46.155Z,13.07
2017-08-06T23:40:46.144Z,13.07
2017-08-06T23:41:46.139Z,13.07
2017-08-06T23:42:46.126Z,13.19
2017-08-06T23:43:46.125Z,13.19
2017-08-06T23:44:46.117Z,13.31
2017-08-06T23:45:46.108Z,13.39
2017-08-06T23:46:46.101Z,13.38
2017-08-06T23:47:46.091Z,13.28
2017-08-06T23:48:46.082Z,13.12
2017-08-06T23:49:46.075Z,13.17
2017-08-06T23:50:46.063Z,12.96
2017-08-06T23:51:46.061Z,12.88
2017-08-06T23:52:46.054Z,12.96
2017-08-06T23:53:46.044Z,12.91
2017-08-06T23:54:46.037Z,12.87
2017-08-06T23:55:46.027Z,12.95
2017-08-06T23:56:46.022Z,12.91
2017-08-06T23:57:46.013Z,12.85
2017-08-06T23:58:46.306Z,12.84
2017-08-06T23:59:45.993Z,12.56
